Time;durP1;ratioP1;P1;durP2;ratioP2;P2;SDS_P1;SDS_P2;PMS_P1;PMS_P2;Temp;Humidity;BMP_temperature;BMP_pressure;BME280_temperature;BME280_humidity;BME280_pressure;Samples;Min_cycle;Max_cycle;Signal;HPM_P1;HPM_P2
2022/04/21 00:00:38;;;;;;;8.02;4.32;;;8.50;99.90;;;;;;5133472;27;20039;-71
2022/04/21 00:03:05;;;;;;;9.48;4.63;;;8.50;99.90;;;;;;5134003;27;20086;-71
2022/04/21 00:05:31;;;;;;;9.40;4.90;;;8.40;99.90;;;;;;5134499;27;20043;-71
2022/04/21 00:07:57;;;;;;;7.25;4.82;;;8.40;99.90;;;;;;5134053;27;20078;-71
2022/04/21 00:10:24;;;;;;;8.40;4.25;;;8.40;99.90;;;;;;5134154;27;20055;-72
2022/04/21 00:12:51;;;;;;;8.40;5.07;;;8.40;99.90;;;;;;5134084;27;20050;-72
2022/04/21 00:15:18;;;;;;;10.55;5.70;;;8.40;99.90;;;;;;5133920;27;20371;-72
2022/04/21 00:17:44;;;;;;;8.05;4.60;;;8.30;99.90;;;;;;5133137;28;20047;-72
2022/04/21 00:20:11;;;;;;;8.82;5.40;;;8.30;99.90;;;;;;5133818;27;20130;-71
2022/04/21 00:25:22;;;;;;;9.10;5.20;;;8.20;99.90;;;;;;5134320;28;20055;-73
2022/04/21 00:27:48;;;;;;;9.43;5.32;;;8.20;99.90;;;;;;5134074;27;20042;-72
2022/04/21 00:30:16;;;;;;;8.52;5.10;;;8.20;99.90;;;;;;5133677;28;20059;-72
2022/04/21 00:32:42;;;;;;;7.50;5.05;;;8.20;99.90;;;;;;5133642;27;20535;-72
2022/04/21 00:35:11;;;;;;;9.15;5.72;;;8.20;99.90;;;;;;5134105;27;20046;-72
2022/04/21 00:37:51;;;;;;;10.25;5.50;;;8.10;99.90;;;;;;5133863;27;20082;-72
2022/04/21 00:40:20;;;;;;;8.93;5.32;;;8.10;99.90;;;;;;5135785;27;20098;-71
2022/04/21 00:42:46;;;;;;;9.40;6.18;;;8.10;99.90;;;;;;5138144;27;20043;-71
2022/04/21 00:45:13;;;;;;;10.57;6.10;;;8.10;99.90;;;;;;5137729;27;20039;-72
2022/04/21 00:47:42;;;;;;;12.77;6.28;;;8.10;99.90;;;;;;5137882;27;20043;-72
2022/04/21 00:50:16;;;;;;;9.13;6.20;;;8.00;99.90;;;;;;5137618;27;20475;-72
2022/04/21 00:52:42;;;;;;;10.02;5.85;;;8.00;99.90;;;;;;5137097;27;20055;-71
2022/04/21 00:55:09;;;;;;;9.98;6.43;;;8.00;99.90;;;;;;5136428;27;20104;-72
2022/04/21 00:57:35;;;;;;;9.52;6.68;;;7.90;99.90;;;;;;5137749;27;20054;-72
2022/04/21 01:00:04;;;;;;;10.18;6.47;;;7.90;99.90;;;;;;5137325;27;20035;-72
2022/04/21 01:02:47;;;;;;;12.48;6.65;;;7.90;99.90;;;;;;5137984;27;20039;-72
2022/04/21 01:05:28;;;;;;;9.80;6.43;;;7.90;99.90;;;;;;5137407;27;20043;-72
2022/04/21 01:07:55;;;;;;;11.45;7.13;;;7.90;99.90;;;;;;5137659;27;20425;-73
2022/04/21 01:10:22;;;;;;;9.43;6.30;;;7.80;99.90;;;;;;5137185;27;20053;-73
2022/04/21 01:12:49;;;;;;;12.95;7.07;;;7.90;99.90;;;;;;5137445;27;20066;-72
2022/04/21 01:15:15;;;;;;;10.65;6.90;;;7.90;99.90;;;;;;5137082;27;20045;-72
2022/04/21 01:17:41;;;;;;;11.73;6.90;;;7.80;99.90;;;;;;5137569;27;20043;-72
2022/04/21 01:20:08;;;;;;;13.30;7.20;;;7.90;99.90;;;;;;5136997;27;20312;-72
2022/04/21 01:22:34;;;;;;;10.90;7.43;;;7.90;99.90;;;;;;5137227;27;20047;-72
2022/04/21 01:25:00;;;;;;;11.87;6.87;;;7.80;99.90;;;;;;5136654;27;20376;-73
2022/04/21 01:27:31;;;;;;;11.10;7.53;;;7.80;99.90;;;;;;5137358;27;20043;-72
2022/04/21 01:29:57;;;;;;;11.35;7.00;;;7.80;99.90;;;;;;5137159;27;20118;-72
2022/04/21 01:32:22;;;;;;;10.37;7.20;;;7.80;99.90;;;;;;5136827;27;20130;-73
2022/04/21 01:34:48;;;;;;;12.73;7.70;;;7.70;99.90;;;;;;5137000;27;20797;-72
2022/04/21 01:42:43;;;;;;;11.25;7.78;;;7.70;99.90;;;;;;5136854;27;20066;-72
2022/04/21 01:45:09;;;;;;;10.90;8.00;;;7.70;99.90;;;;;;5136531;27;20043;-72
2022/04/21 01:47:34;;;;;;;13.03;8.03;;;7.70;99.90;;;;;;5136689;27;20050;-72
2022/04/21 01:50:00;;;;;;;12.83;8.43;;;7.70;99.90;;;;;;5136546;27;20039;-72
2022/04/21 01:52:26;;;;;;;13.18;8.70;;;7.70;99.90;;;;;;5135218;27;20547;-72
2022/04/21 01:54:52;;;;;;;13.73;9.00;;;7.60;99.90;;;;;;5135503;27;20047;-72
2022/04/21 01:57:19;;;;;;;11.67;8.40;;;7.70;99.90;;;;;;5136340;27;20050;-73
2022/04/21 01:59:46;;;;;;;13.10;8.27;;;7.70;99.90;;;;;;5136495;27;20043;-72
2022/04/21 02:02:12;;;;;;;12.35;8.68;;;7.70;99.90;;;;;;5134972;27;20055;-72
2022/04/21 02:04:37;;;;;;;13.30;8.27;;;7.60;99.90;;;;;;5136450;27;20053;-72
2022/04/21 02:07:04;;;;;;;14.73;9.80;;;7.60;99.90;;;;;;5136192;27;20047;-72
2022/04/21 02:09:29;;;;;;;14.35;9.93;;;7.60;99.90;;;;;;5135726;27;20055;-73
2022/04/21 02:11:55;;;;;;;13.47;8.90;;;7.60;99.90;;;;;;5136296;27;20081;-72
2022/04/21 02:14:21;;;;;;;14.73;9.40;;;7.60;99.90;;;;;;5136051;27;20090;-72
2022/04/21 02:16:47;;;;;;;13.57;9.43;;;7.50;99.90;;;;;;5135263;27;20047;-72
2022/04/21 02:19:12;;;;;;;12.57;9.07;;;7.60;99.90;;;;;;5135870;27;20046;-72
2022/04/21 02:21:38;;;;;;;13.77;9.13;;;7.50;99.90;;;;;;5136052;27;20054;-72
2022/04/21 02:24:04;;;;;;;12.50;9.40;;;7.50;99.90;;;;;;5135778;27;20054;-72
2022/04/21 02:26:30;;;;;;;19.50;10.07;;;7.50;99.90;;;;;;5136361;27;20372;-73
2022/04/21 02:28:55;;;;;;;15.80;10.47;;;7.50;99.90;;;;;;5136012;27;20126;-73
2022/04/21 02:31:21;;;;;;;15.73;10.80;;;7.50;99.90;;;;;;5135702;27;20058;-72
2022/04/21 02:33:47;;;;;;;19.13;11.13;;;7.50;99.90;;;;;;5135895;27;20372;-72
2022/04/21 02:36:12;;;;;;;15.63;11.20;;;7.40;99.90;;;;;;5135558;27;20111;-72
2022/04/21 02:38:38;;;;;;;16.23;12.20;;;7.50;99.90;;;;;;5136006;27;20050;-73
2022/04/21 02:41:04;;;;;;;15.87;10.67;;;7.40;99.90;;;;;;5135830;27;20055;-72
2022/04/21 02:43:29;;;;;;;14.73;11.07;;;7.40;99.90;;;;;;5135459;27;20051;-73
2022/04/21 02:45:55;;;;;;;18.63;11.57;;;7.40;99.90;;;;;;5135705;27;20043;-72
2022/04/21 02:48:21;;;;;;;16.27;11.27;;;7.40;99.90;;;;;;5135348;27;20479;-72
2022/04/21 02:50:48;;;;;;;16.73;11.47;;;7.40;99.90;;;;;;5134596;27;20051;-72
2022/04/21 02:53:14;;;;;;;18.60;11.70;;;7.30;99.90;;;;;;5135306;27;20401;-72
2022/04/21 02:58:24;;;;;;;20.00;12.23;;;7.40;99.90;;;;;;5134266;27;20072;-72
2022/04/21 03:00:51;;;;;;;17.10;12.00;;;7.40;99.90;;;;;;5151575;27;20043;-72
2022/04/21 03:03:17;;;;;;;17.20;11.82;;;7.40;99.90;;;;;;5134600;27;20051;-72
2022/04/21 03:05:42;;;;;;;15.73;11.73;;;7.40;99.90;;;;;;5134950;27;20038;-73
2022/04/21 03:08:08;;;;;;;18.80;12.60;;;7.50;99.90;;;;;;5135214;27;20100;-73
2022/04/21 03:10:34;;;;;;;18.73;13.57;;;7.40;99.90;;;;;;5135108;27;20122;-72
2022/04/21 03:12:59;;;;;;;17.73;13.13;;;7.50;99.90;;;;;;5135093;27;20530;-72
2022/04/21 03:15:25;;;;;;;17.63;13.73;;;7.40;99.90;;;;;;5134883;27;20043;-72
2022/04/21 03:17:51;;;;;;;18.43;12.80;;;7.40;99.90;;;;;;5134993;27;20099;-73
2022/04/21 03:26:02;;;;;;;17.00;12.60;;;7.40;99.90;;;;;;5091443;28;20048;-73
2022/04/21 03:28:28;;;;;;;17.00;12.67;;;7.40;99.90;;;;;;5125500;27;20065;-72
2022/04/21 03:30:54;;;;;;;20.77;13.60;;;7.40;99.90;;;;;;5134701;27;20043;-72
2022/04/21 03:33:20;;;;;;;16.63;12.77;;;7.40;99.90;;;;;;5133547;27;20126;-72
2022/04/21 03:35:45;;;;;;;15.30;12.48;;;7.50;99.90;;;;;;5134404;27;20045;-73
2022/04/21 03:38:11;;;;;;;19.17;12.80;;;7.40;99.90;;;;;;5134428;27;20431;-72
2022/04/21 03:40:37;;;;;;;16.17;12.33;;;7.40;99.90;;;;;;5133169;27;20466;-72
2022/04/21 03:43:03;;;;;;;19.20;13.17;;;7.50;99.90;;;;;;5134538;27;20050;-72
2022/04/21 03:45:29;;;;;;;18.17;13.07;;;7.50;99.90;;;;;;5134306;27;20502;-72
2022/04/21 03:47:54;;;;;;;18.15;12.70;;;7.60;99.90;;;;;;5134447;27;20479;-73
2022/04/21 03:50:20;;;;;;;16.70;12.80;;;7.50;99.90;;;;;;5134143;27;20039;-72
2022/04/21 03:52:46;;;;;;;17.47;12.33;;;7.50;99.90;;;;;;5134433;27;20047;-72
2022/04/21 03:55:11;;;;;;;16.40;11.93;;;7.60;99.90;;;;;;5168129;27;20387;-73
2022/04/21 03:57:37;;;;;;;15.57;12.00;;;7.60;99.90;;;;;;5134090;27;20129;-72
2022/04/21 04:00:04;;;;;;;18.40;13.30;;;7.60;99.90;;;;;;5134248;27;20080;-72
2022/04/21 04:02:29;;;;;;;17.35;13.00;;;7.50;99.90;;;;;;5134091;27;20054;-72
2022/04/21 04:04:55;;;;;;;17.43;12.37;;;7.60;99.90;;;;;;5116309;27;20051;-72
2022/04/21 04:12:49;;;;;;;19.13;12.27;;;7.50;99.90;;;;;;5133120;27;20065;-73
2022/04/21 04:15:15;;;;;;;15.33;12.57;;;7.50;99.90;;;;;;5133095;27;20047;-72
2022/04/21 04:17:41;;;;;;;15.43;11.57;;;7.50;99.90;;;;;;5134072;28;20062;-72
2022/04/21 04:20:07;;;;;;;16.57;12.03;;;7.60;99.90;;;;;;5134080;27;20054;-72
2022/04/21 04:22:39;;;;;;;17.70;12.43;;;7.50;99.90;;;;;;5132665;28;20043;-72
2022/04/21 04:25:05;;;;;;;14.88;11.80;;;7.50;99.90;;;;;;5134040;27;20047;-72
2022/04/21 04:27:31;;;;;;;17.95;11.75;;;7.50;99.90;;;;;;5132781;28;20498;-73
2022/04/21 04:29:57;;;;;;;16.50;11.70;;;7.40;99.90;;;;;;5133938;28;20047;-72
2022/04/21 04:32:22;;;;;;;15.73;11.60;;;7.40;99.90;;;;;;5133716;27;20043;-72
2022/04/21 04:34:48;;;;;;;15.27;11.10;;;7.40;99.90;;;;;;5134201;28;20039;-72
2022/04/21 04:37:13;;;;;;;18.07;11.43;;;7.40;99.90;;;;;;5133904;28;20094;-72
2022/04/21 04:39:39;;;;;;;21.20;12.33;;;7.40;99.90;;;;;;5133463;28;20059;-72
2022/04/21 04:42:17;;;;;;;13.87;10.20;;;7.50;99.90;;;;;;5134072;28;20055;-73
2022/04/21 04:44:47;;;;;;;15.73;11.23;;;7.50;99.90;;;;;;5134197;28;20390;-72
2022/04/21 04:47:14;;;;;;;13.73;9.98;;;7.50;99.90;;;;;;5132611;28;20047;-72
2022/04/21 04:49:40;;;;;;;14.15;10.00;;;7.50;99.90;;;;;;5133620;27;20129;-74
2022/04/21 04:52:06;;;;;;;12.85;9.50;;;7.60;99.90;;;;;;5133893;27;20047;-72
2022/04/21 04:54:32;;;;;;;15.23;9.93;;;7.70;99.90;;;;;;5133565;28;20088;-72
2022/04/21 04:56:58;;;;;;;12.53;9.53;;;7.70;99.90;;;;;;5133620;27;20054;-72
2022/04/21 04:59:24;;;;;;;13.23;9.17;;;7.70;99.90;;;;;;5133440;27;20039;-72
2022/04/21 05:01:50;;;;;;;13.35;9.35;;;7.70;99.90;;;;;;5133608;27;20475;-72
2022/04/21 05:04:18;;;;;;;14.23;9.77;;;7.70;99.90;;;;;;5133624;27;20058;-73
2022/04/21 05:06:49;;;;;;;13.73;9.75;;;7.70;99.90;;;;;;5133397;27;20043;-72
2022/04/21 05:09:16;;;;;;;11.63;8.77;;;7.80;99.90;;;;;;5133940;27;20070;-72
2022/04/21 05:11:44;;;;;;;12.45;9.20;;;7.80;99.90;;;;;;5133149;27;20043;-72
2022/04/21 05:14:10;;;;;;;14.32;9.20;;;7.90;99.90;;;;;;5133493;27;20035;-72
2022/04/21 05:16:37;;;;;;;11.93;8.65;;;7.90;99.90;;;;;;5131752;28;20483;-73
2022/04/21 05:19:09;;;;;;;14.15;9.45;;;8.00;99.90;;;;;;5133303;27;20050;-72
2022/04/21 05:21:36;;;;;;;13.95;8.05;;;8.10;99.90;;;;;;5132584;27;20104;-72
2022/04/21 05:24:03;;;;;;;11.93;8.57;;;8.10;99.90;;;;;;5133316;27;20079;-72
2022/04/21 05:26:30;;;;;;;15.60;8.38;;;8.10;99.90;;;;;;5134696;27;20051;-72
2022/04/21 05:28:57;;;;;;;11.27;8.38;;;8.10;99.90;;;;;;5136466;27;20051;-72
2022/04/21 05:31:24;;;;;;;12.77;8.38;;;8.10;99.90;;;;;;5135830;27;20043;-72
2022/04/21 05:33:50;;;;;;;13.05;8.18;;;8.10;99.90;;;;;;5137221;27;20406;-73
2022/04/21 05:36:16;;;;;;;13.30;8.73;;;8.10;99.90;;;;;;5170903;27;20447;-72
2022/04/21 05:38:43;;;;;;;13.25;8.23;;;8.10;99.90;;;;;;5136723;27;20877;-72
2022/04/21 05:41:09;;;;;;;11.35;8.20;;;8.20;99.90;;;;;;5136901;27;20168;-72
2022/04/21 05:43:43;;;;;;;11.25;7.47;;;8.20;99.90;;;;;;5136627;27;20043;-72
2022/04/21 05:46:14;;;;;;;12.40;8.45;;;8.30;99.90;;;;;;5136783;27;20046;-72
2022/04/21 05:48:41;;;;;;;13.45;8.38;;;8.40;99.90;;;;;;5136488;27;20440;-72
2022/04/21 05:51:09;;;;;;;10.60;7.07;;;8.40;99.90;;;;;;5136714;27;20051;-72
2022/04/21 05:53:37;;;;;;;15.10;8.18;;;8.50;99.90;;;;;;5136426;27;20086;-72
2022/04/21 05:56:04;;;;;;;11.43;7.57;;;8.80;99.90;;;;;;5136624;27;20055;-72
2022/04/21 05:58:31;;;;;;;11.10;7.00;;;9.90;99.90;;;;;;5118350;27;20050;-73
2022/04/21 06:00:57;;;;;;;11.25;7.32;;;;;;;;;;5136541;27;20109;-72
2022/04/21 06:03:23;;;;;;;10.65;7.03;;;12.50;99.90;;;;;;5136432;27;20047;-72
2022/04/21 06:05:49;;;;;;;9.30;6.97;;;13.20;99.90;;;;;;5136287;27;20096;-73
2022/04/21 06:08:15;;;;;;;10.57;6.80;;;;;;;;;;5136564;27;20281;-72
2022/04/21 06:10:41;;;;;;;11.93;7.30;;;14.80;81.30;;;;;;5136074;27;20456;-72
2022/04/21 06:13:07;;;;;;;10.70;6.43;;;15.10;89.40;;;;;;5135950;27;20276;-73
2022/04/21 06:15:33;;;;;;;9.27;6.67;;;15.40;84.40;;;;;;5135963;27;20083;-72
2022/04/21 06:17:59;;;;;;;9.27;6.20;;;15.90;78.00;;;;;;5136438;27;20042;-73
2022/04/21 06:20:28;;;;;;;8.83;6.13;;;16.20;74.00;;;;;;5136077;27;20318;-72
2022/04/21 06:22:55;;;;;;;9.30;5.77;;;17.00;67.10;;;;;;5135151;27;20284;-72
2022/04/21 06:25:21;;;;;;;11.87;5.80;;;17.60;68.40;;;;;;5136102;27;20291;-72
2022/04/21 06:27:51;;;;;;;9.90;5.27;;;18.40;62.30;;;;;;5135820;27;20296;-73
2022/04/21 06:30:23;;;;;;;9.97;5.63;;;19.10;54.50;;;;;;5136251;27;20269;-72
2022/04/21 06:32:49;;;;;;;11.23;6.20;;;19.10;55.30;;;;;;5135805;27;20628;-72
2022/04/21 06:35:15;;;;;;;8.90;5.80;;;19.20;55.80;;;;;;5135814;27;20359;-73
2022/04/21 06:37:42;;;;;;;8.90;5.73;;;19.50;52.80;;;;;;5134384;27;20127;-73
2022/04/21 06:40:08;;;;;;;7.10;5.53;;;19.30;51.80;;;;;;5135333;27;20491;-72
2022/04/21 06:42:37;;;;;;;10.10;6.20;;;19.80;51.90;;;;;;5135460;27;20086;-72
2022/04/21 06:48:03;;;;;;;;;;;20.40;48.60;;;;;;5135867;27;20112;-73
2022/04/21 06:50:36;;;;;;;6.70;5.53;;;20.90;48.40;;;;;;5135781;27;20328;-72
2022/04/21 06:53:04;;;;;;;8.27;5.23;;;21.30;47.30;;;;;;5135897;27;20061;-73
2022/04/21 06:55:29;;;;;;;7.13;5.33;;;21.20;46.40;;;;;;5134274;27;20384;-73
2022/04/21 06:57:55;;;;;;;10.87;5.17;;;21.60;45.50;;;;;;5135852;27;20130;-73
2022/04/21 07:00:22;;;;;;;7.83;5.43;;;21.80;45.60;;;;;;5135256;27;20116;-73
2022/04/21 07:02:51;;;;;;;7.50;5.10;;;22.00;43.90;;;;;;5134075;27;20055;-73
2022/04/21 07:05:17;;;;;;;6.80;4.67;;;22.10;43.40;;;;;;5135035;27;20471;-73
2022/04/21 07:07:44;;;;;;;7.57;5.10;;;22.10;42.90;;;;;;5134986;27;20062;-73
2022/04/21 07:10:10;;;;;;;7.13;4.83;;;;;;;;;;5135238;27;20038;-72
2022/04/21 07:12:37;;;;;;;7.33;4.53;;;22.60;40.30;;;;;;5134835;27;20099;-73
2022/04/21 07:15:07;;;;;;;7.63;4.97;;;22.80;41.20;;;;;;5135273;27;20051;-73
2022/04/21 07:17:34;;;;;;;6.30;4.50;;;22.90;40.30;;;;;;5133910;27;20444;-73
2022/04/21 07:20:00;;;;;;;5.80;4.17;;;22.30;40.00;;;;;;5135245;27;20056;-73
2022/04/21 07:22:26;;;;;;;6.50;4.63;;;21.90;39.80;;;;;;5135132;27;20134;-72
2022/04/21 07:24:56;;;;;;;6.77;4.40;;;21.90;39.50;;;;;;5134667;27;20126;-73
2022/04/21 07:27:22;;;;;;;7.33;4.20;;;;;;;;;;5134822;27;20054;-73
2022/04/21 07:29:48;;;;;;;5.53;3.73;;;21.90;39.50;;;;;;5134566;27;20046;-72
2022/04/21 07:32:15;;;;;;;5.93;3.43;;;22.40;40.00;;;;;;5134965;27;20082;-72
2022/04/21 07:34:40;;;;;;;7.67;4.00;;;23.00;39.30;;;;;;5134490;27;20039;-73
2022/04/21 07:37:08;;;;;;;6.17;4.17;;;23.30;38.60;;;;;;5134715;27;20058;-72
2022/04/21 07:39:35;;;;;;;6.83;3.90;;;23.00;38.10;;;;;;5134237;27;20047;-72
2022/04/21 07:42:01;;;;;;;6.63;4.37;;;23.20;42.20;;;;;;5134638;27;20054;-73
2022/04/21 07:44:27;;;;;;;6.60;3.53;;;22.90;37.70;;;;;;5134531;27;20047;-72
2022/04/21 07:46:53;;;;;;;4.97;3.27;;;23.20;38.30;;;;;;5134709;27;20091;-72
2022/04/21 07:54:48;;;;;;;6.60;3.20;;;;;;;;;;5134351;27;20123;-72
2022/04/21 07:57:14;;;;;;;4.10;2.77;;;;;;;;;;5134390;27;20133;-72
2022/04/21 07:59:40;;;;;;;6.07;3.30;;;20.70;37.20;;;;;;5134038;27;20042;-72
2022/04/21 08:02:08;;;;;;;7.30;3.37;;;19.30;39.40;;;;;;5134406;27;20039;-72
2022/04/21 08:04:37;;;;;;;4.97;3.17;;;18.40;41.10;;;;;;5134356;27;20089;-72
2022/04/21 08:07:06;;;;;;;5.87;3.20;;;18.10;42.30;;;;;;5134354;27;20043;-72
2022/04/21 08:09:33;;;;;;;8.47;3.47;;;;;;;;;;5133151;27;20039;-72
2022/04/21 08:11:58;;;;;;;8.67;3.03;;;17.80;42.70;;;;;;5133988;27;20103;-72
2022/04/21 08:14:24;;;;;;;5.63;3.37;;;17.60;43.80;;;;;;5134147;27;20130;-72
2022/04/21 08:16:53;;;;;;;4.33;2.70;;;17.20;44.60;;;;;;5133958;27;20047;-72
2022/04/21 08:19:20;;;;;;;4.47;2.87;;;17.10;45.20;;;;;;5133064;28;20172;-72
2022/04/21 08:21:47;;;;;;;4.53;2.90;;;16.90;45.30;;;;;;5133934;27;20050;-72
2022/04/21 08:32:33;;;;;;;5.63;2.60;;;16.70;46.50;;;;;;5133907;28;19972;-72
2022/04/21 08:35:01;;;;;;;6.00;2.37;;;16.60;45.90;;;;;;5134010;27;20051;-72
2022/04/21 08:37:27;;;;;;;4.07;2.03;;;16.40;49.50;;;;;;5133912;27;20048;-72
2022/04/21 08:39:55;;;;;;;6.27;2.53;;;16.40;46.30;;;;;;5133455;27;20031;-72
2022/04/21 08:42:21;;;;;;;5.33;2.67;;;16.30;46.50;;;;;;5133867;27;20047;-72
2022/04/21 08:44:49;;;;;;;6.10;2.37;;;16.20;47.00;;;;;;5132713;28;20085;-72
2022/04/21 08:47:19;;;;;;;4.67;2.50;;;16.10;47.60;;;;;;5133830;27;20111;-72
2022/04/21 08:49:49;;;;;;;4.67;1.93;;;16.10;47.60;;;;;;5133862;27;20531;-72
2022/04/21 08:52:17;;;;;;;4.13;2.20;;;16.10;48.00;;;;;;5134085;27;20086;-72
2022/04/21 08:54:43;;;;;;;4.20;2.27;;;15.90;48.20;;;;;;5133643;27;20039;-72
2022/04/21 08:57:10;;;;;;;4.87;2.10;;;15.90;48.10;;;;;;5132716;28;20043;-72
2022/04/21 08:59:35;;;;;;;7.00;2.00;;;15.90;48.60;;;;;;5133872;27;20375;-72
2022/04/21 09:02:01;;;;;;;6.93;2.37;;;16.00;48.80;;;;;;5136971;27;20276;-72
2022/04/21 09:04:30;;;;;;;5.43;2.40;;;15.90;48.40;;;;;;5137317;27;20116;-72
2022/04/21 09:06:56;;;;;;;4.97;1.93;;;15.90;48.50;;;;;;5137411;27;20163;-72
2022/04/21 09:09:22;;;;;;;5.50;2.13;;;;;;;;;;5137714;27;20275;-72
2022/04/21 09:11:53;;;;;;;5.37;2.30;;;15.80;48.00;;;;;;5137359;27;20360;-72
2022/04/21 09:14:20;;;;;;;3.93;2.27;;;15.80;48.90;;;;;;5137796;27;20696;-72
2022/04/21 09:16:47;;;;;;;4.77;2.10;;;15.80;49.50;;;;;;5137175;27;20302;-72
2022/04/21 09:19:14;;;;;;;4.93;2.07;;;15.80;49.10;;;;;;5137283;27;20296;-72
2022/04/21 09:21:41;;;;;;;4.37;2.10;;;15.70;49.50;;;;;;5137434;27;20296;-71
2022/04/21 09:24:27;;;;;;;6.67;2.00;;;15.80;50.10;;;;;;5137019;27;20284;-71
2022/04/21 09:26:55;;;;;;;3.20;1.80;;;15.90;50.00;;;;;;5137044;27;20281;-72
2022/04/21 09:29:30;;;;;;;6.47;2.30;;;16.00;50.20;;;;;;5137088;27;20848;-72
2022/04/21 09:32:02;;;;;;;5.43;2.60;;;16.10;50.30;;;;;;5136950;27;20360;-72
2022/04/21 09:34:28;;;;;;;5.47;2.50;;;16.10;49.90;;;;;;5137105;27;20273;-72
2022/04/21 09:36:59;;;;;;;4.27;2.40;;;16.00;50.40;;;;;;5136879;27;20281;-72
2022/04/21 09:39:27;;;;;;;6.37;2.50;;;15.90;50.10;;;;;;5136662;27;20822;-72
2022/04/21 09:41:56;;;;;;;5.40;2.70;;;16.00;49.60;;;;;;5135363;27;20285;-72
2022/04/21 09:47:20;;;;;;;4.80;2.57;;;15.80;50.50;;;;;;5137146;27;20636;-72
2022/04/21 09:49:46;;;;;;;7.07;2.40;;;15.80;51.10;;;;;;5136035;27;20281;-72
2022/04/21 09:52:12;;;;;;;6.60;3.00;;;15.80;51.50;;;;;;5136643;27;20280;-72
2022/04/21 09:54:40;;;;;;;5.40;2.50;;;15.90;51.50;;;;;;5136636;27;20043;-72
2022/04/21 09:57:07;;;;;;;6.17;2.67;;;15.90;50.50;;;;;;5135383;27;20358;-72
2022/04/21 09:59:36;;;;;;;4.93;2.80;;;15.70;51.10;;;;;;5136517;27;20369;-72
2022/04/21 10:02:03;;;;;;;9.87;2.43;;;15.80;51.50;;;;;;5136343;27;20315;-72
2022/04/21 10:04:30;;;;;;;6.97;2.57;;;15.70;51.60;;;;;;5136566;27;20338;-72
2022/04/21 10:06:57;;;;;;;6.67;2.60;;;15.90;51.60;;;;;;5136275;27;20285;-72
2022/04/21 10:09:23;;;;;;;11.50;2.53;;;15.90;51.40;;;;;;5136376;27;20300;-72
2022/04/21 10:11:52;;;;;;;7.43;2.10;;;15.90;51.70;;;;;;5135087;27;20269;-72
2022/04/21 10:14:18;;;;;;;6.17;2.43;;;15.90;51.60;;;;;;5136572;27;20368;-72
2022/04/21 10:16:44;;;;;;;5.57;2.50;;;15.90;50.90;;;;;;5135975;27;20392;-72
2022/04/21 10:19:12;;;;;;;5.50;2.40;;;15.90;50.90;;;;;;5135963;27;20172;-73
2022/04/21 10:21:51;;;;;;;5.83;2.50;;;15.90;51.00;;;;;;5136383;27;20301;-72
2022/04/21 10:24:28;;;;;;;5.10;2.70;;;15.80;51.20;;;;;;5136424;27;20714;-72
2022/04/21 10:26:55;;;;;;;6.97;2.80;;;15.70;51.30;;;;;;5135965;27;20269;-72
2022/04/21 10:29:23;;;;;;;4.93;2.80;;;15.90;51.30;;;;;;5136082;27;20283;-72
2022/04/21 10:32:01;;;;;;;5.23;2.60;;;15.80;51.50;;;;;;5135579;27;20312;-72
2022/04/21 10:34:37;;;;;;;5.03;2.77;;;15.80;52.20;;;;;;5134912;27;20337;-73
2022/04/21 10:37:22;;;;;;;8.33;3.20;;;15.90;52.00;;;;;;5135778;27;20277;-72
2022/04/21 10:40:09;;;;;;;7.32;3.15;;;16.00;52.80;;;;;;5135727;27;20308;-72
2022/04/21 10:42:57;;;;;;;5.40;2.83;;;16.10;53.10;;;;;;5135779;27;20051;-73
2022/04/21 10:45:32;;;;;;;5.23;3.00;;;16.20;52.90;;;;;;5135951;27;20290;-73
2022/04/21 10:48:12;;;;;;;5.13;3.00;;;16.30;52.50;;;;;;5135557;27;20280;-72
2022/04/21 10:50:40;;;;;;;5.73;2.90;;;16.30;52.80;;;;;;5135631;27;20050;-72
2022/04/21 10:58:37;;;;;;;6.83;2.80;;;16.20;54.10;;;;;;5135482;27;20342;-71
2022/04/21 11:01:07;;;;;;;6.00;2.77;;;16.20;53.50;;;;;;5135134;27;20297;-72
2022/04/21 11:03:33;;;;;;;7.03;3.40;;;16.20;52.00;;;;;;5135351;27;20047;-72
2022/04/21 11:06:09;;;;;;;6.63;3.23;;;;;;;;;;5134136;27;20385;-72
2022/04/21 11:08:35;;;;;;;5.70;3.50;;;16.30;51.90;;;;;;5135208;27;20043;-72
2022/04/21 11:11:01;;;;;;;7.27;3.13;;;16.30;53.00;;;;;;5135001;27;20624;-72
2022/04/21 11:13:51;;;;;;;4.90;2.77;;;16.30;52.60;;;;;;5135158;27;20324;-72
2022/04/21 11:16:47;;;;;;;6.93;3.00;;;16.30;53.00;;;;;;5134872;27;20283;-72
2022/04/21 11:20:00;;;;;;;5.23;2.70;;;16.20;53.10;;;;;;5127712;27;20375;-72
2022/04/21 11:22:39;;;;;;;5.80;3.10;;;16.30;53.60;;;;;;5121048;27;20648;-72
2022/04/21 11:25:06;;;;;;;5.57;2.70;;;16.40;51.90;;;;;;5134529;27;20281;-72
2022/04/21 11:27:34;;;;;;;7.40;3.13;;;16.30;52.50;;;;;;5134921;27;20277;-72
2022/04/21 11:30:14;;;;;;;5.40;3.07;;;16.20;53.00;;;;;;5133433;27;20281;-72
2022/04/21 11:32:50;;;;;;;6.70;2.97;;;16.30;53.00;;;;;;5134966;27;20325;-72
2022/04/21 11:35:16;;;;;;;6.83;2.63;;;16.40;52.50;;;;;;5134588;27;20269;-72
2022/04/21 11:37:59;;;;;;;6.47;2.70;;;16.40;52.70;;;;;;5134717;27;20624;-71
2022/04/21 11:40:26;;;;;;;6.20;2.77;;;16.30;53.70;;;;;;5134503;27;20898;-71
2022/04/21 11:42:54;;;;;;;7.90;2.60;;;16.40;52.60;;;;;;5134466;27;20684;-72
2022/04/21 11:45:24;;;;;;;6.33;2.50;;;16.40;52.60;;;;;;5133471;27;20787;-71
2022/04/21 11:47:51;;;;;;;9.17;3.07;;;16.40;52.80;;;;;;5134587;27;20821;-72
2022/04/21 11:50:24;;;;;;;5.47;2.60;;;16.40;52.10;;;;;;5134265;27;20269;-72
2022/04/21 11:52:52;;;;;;;6.03;2.40;;;16.40;51.60;;;;;;5134554;27;20678;-72
2022/04/21 11:55:20;;;;;;;4.57;2.53;;;16.40;51.80;;;;;;5134061;27;20277;-72
2022/04/21 11:57:47;;;;;;;6.77;2.80;;;16.40;52.30;;;;;;5134103;27;20308;-72
2022/04/21 12:00:15;;;;;;;4.53;2.47;;;16.50;51.70;;;;;;5133839;27;20618;-72
2022/04/21 12:08:12;;;;;;;4.70;2.43;;;16.60;51.60;;;;;;5134058;27;20073;-72
2022/04/21 12:10:38;;;;;;;5.97;2.40;;;16.60;51.60;;;;;;5134000;27;20624;-72
2022/04/21 12:13:04;;;;;;;8.10;2.90;;;16.60;51.00;;;;;;5133860;27;20279;-72
2022/04/21 12:15:31;;;;;;;4.60;2.30;;;16.60;51.40;;;;;;5134144;27;20308;-72
2022/04/21 12:18:00;;;;;;;6.40;2.60;;;16.60;51.30;;;;;;5134210;27;20359;-71
2022/04/21 12:20:27;;;;;;;5.20;2.30;;;16.70;81.50;;;;;;5134179;27;20379;-73
2022/04/21 12:22:54;;;;;;;5.83;2.33;;;16.50;77.40;;;;;;5134110;27;20394;-73
2022/04/21 12:25:31;;;;;;;4.80;2.40;;;16.60;77.40;;;;;;5133867;27;20625;-73
2022/04/21 12:28:02;;;;;;;8.73;2.30;;;16.60;77.10;;;;;;5134150;27;20266;-73
2022/04/21 12:30:28;;;;;;;6.23;2.20;;;16.60;84.10;;;;;;5134085;27;20265;-72
2022/04/21 12:32:53;;;;;;;7.43;2.73;;;16.70;84.00;;;;;;5134084;27;20279;-73
2022/04/21 12:35:44;;;;;;;5.20;2.70;;;16.80;81.90;;;;;;5134468;27;20069;-73
2022/04/21 12:40:59;;;;;;;5.88;2.75;;;16.70;66.60;;;;;;5137733;27;20297;-72
2022/04/21 12:43:30;;;;;;;7.53;3.10;;;16.70;68.10;;;;;;5137950;27;20483;-72
2022/04/21 12:45:59;;;;;;;6.67;2.80;;;16.70;68.30;;;;;;5138369;27;20280;-72
2022/04/21 12:48:28;;;;;;;6.93;3.10;;;16.70;69.90;;;;;;5137805;27;20359;-72
2022/04/21 12:50:56;;;;;;;6.23;3.20;;;16.70;68.10;;;;;;5137994;27;20363;-72
2022/04/21 12:53:26;;;;;;;8.53;3.03;;;16.70;69.00;;;;;;5137641;27;20276;-72
2022/04/21 12:55:53;;;;;;;7.20;3.30;;;16.60;60.40;;;;;;5137886;27;20280;-72
2022/04/21 12:58:32;;;;;;;8.07;3.87;;;16.40;54.20;;;;;;5137531;27;20760;-72
2022/04/21 13:01:02;;;;;;;6.23;3.73;;;16.30;55.20;;;;;;5137961;27;20293;-72
2022/04/21 13:03:28;;;;;;;8.60;3.93;;;16.40;56.00;;;;;;5137621;27;20288;-72
2022/04/21 13:05:57;;;;;;;8.33;4.00;;;16.50;56.50;;;;;;5137668;27;20272;-72
2022/04/21 13:08:27;;;;;;;6.87;3.70;;;16.50;56.00;;;;;;5137390;27;20272;-72
2022/04/21 13:10:55;;;;;;;5.87;3.60;;;16.50;55.70;;;;;;5137795;27;20301;-73
2022/04/21 13:13:21;;;;;;;6.40;3.80;;;16.40;56.70;;;;;;5137269;27;20277;-72
2022/04/21 13:15:47;;;;;;;6.67;3.77;;;16.40;56.50;;;;;;5137450;27;20284;-73
2022/04/21 13:18:15;;;;;;;10.57;3.97;;;16.40;56.90;;;;;;5137267;27;20323;-72
2022/04/21 13:23:26;;;;;;;6.50;3.65;;;16.50;56.80;;;;;;5137216;27;20320;-73
2022/04/21 13:25:53;;;;;;;8.07;3.90;;;16.50;57.40;;;;;;5137400;27;20094;-73
2022/04/21 13:28:19;;;;;;;5.63;3.47;;;16.50;57.90;;;;;;5137110;27;20055;-72
2022/04/21 13:30:45;;;;;;;6.50;4.13;;;16.60;62.50;;;;;;5136060;27;20284;-73
2022/04/21 13:33:22;;;;;;;8.00;3.90;;;16.70;61.30;;;;;;5136555;27;20279;-72
2022/04/21 13:35:52;;;;;;;10.70;4.20;;;16.60;62.70;;;;;;5136781;27;20047;-73
2022/04/21 13:38:19;;;;;;;6.13;3.43;;;16.60;59.40;;;;;;5136434;27;20283;-73
2022/04/21 13:40:45;;;;;;;7.17;4.13;;;16.50;56.30;;;;;;5136257;27;20361;-72
2022/04/21 13:43:11;;;;;;;7.50;3.83;;;16.50;56.80;;;;;;5136398;27;20281;-72
2022/04/21 13:45:37;;;;;;;8.77;4.13;;;16.50;57.10;;;;;;5137083;27;20272;-73
2022/04/21 13:48:04;;;;;;;8.43;3.90;;;16.40;57.10;;;;;;5136525;27;20107;-72
2022/04/21 13:50:30;;;;;;;7.50;3.60;;;16.40;57.40;;;;;;5136536;27;20284;-72